Time;durP1;ratioP1;P1;durP2;ratioP2;P2;SDS_P1;SDS_P2;PMS_P1;PMS_P2;Temp;Humidity;BMP_temperature;BMP_pressure;BME280_temperature;BME280_humidity;BME280_pressure;Samples;Min_cycle;Max_cycle;Signal;HPM_P1;HPM_P2
2022/08/20 00:01:44;;;;;;;;;1.50;1.50;;;;;;;;5102013;27;61938;-79
2022/08/20 00:04:09;;;;;;;;;1.50;1.00;;;;;;;;5102000;27;62180;-79
2022/08/20 00:06:35;;;;;;;;;1.75;1.75;;;;;;;;5102825;27;62058;-80
2022/08/20 00:09:00;;;;;;;;;4.25;2.00;;;;;;;;5103181;27;61823;-79
2022/08/20 00:11:26;;;;;;;;;2.50;2.50;;;;;;;;5101523;27;61917;-79
2022/08/20 00:13:52;;;;;;;;;1.25;1.25;;;;;;;;5103699;27;61809;-79
2022/08/20 00:16:19;;;;;;;;;2.25;1.50;;;;;;;;5100902;27;64934;-79
2022/08/20 00:18:45;;;;;;;;;3.00;3.00;;;;;;;;5103093;27;61755;-79
2022/08/20 00:21:11;;;;;;;;;2.00;2.00;;;;;;;;5101565;27;62195;-80
2022/08/20 00:23:38;;;;;;;;;2.50;1.50;;;;;;;;5102443;27;61769;-80
2022/08/20 00:26:05;;;;;;;;;2.50;2.50;;;;;;;;5102471;27;62192;-79
2022/08/20 00:28:30;;;;;;;;;2.00;2.00;;;;;;;;5102872;27;61863;-79
2022/08/20 00:30:56;;;;;;;;;1.75;1.75;;;;;;;;5102716;27;61706;-79
2022/08/20 00:33:22;;;;;;;;;2.00;2.00;;;;;;;;5103080;27;61951;-79
2022/08/20 00:35:50;;;;;;;;;2.00;1.00;;;;;;;;5100734;27;63472;-78
2022/08/20 00:38:16;;;;;;;;;4.50;1.75;;;;;;;;5102672;27;62081;-79
2022/08/20 00:40:44;;;;;;;;;1.25;1.25;;;;;;;;5102465;27;61860;-80
2022/08/20 00:43:28;;;;;;;;;3.00;2.00;;;;;;;;5102718;27;61907;-80
2022/08/20 00:45:56;;;;;;;;;2.25;1.00;;;;;;;;5101930;27;62022;-79
2022/08/20 00:48:25;;;;;;;;;1.25;1.25;;;;;;;;5101375;27;62032;-79
2022/08/20 00:50:52;;;;;;;;;1.25;1.25;;;;;;;;5101887;27;61813;-80
2022/08/20 00:53:19;;;;;;;;;2.25;1.00;;;;;;;;5102206;27;61772;-80
2022/08/20 00:55:44;;;;;;;;;3.00;2.00;;;;;;;;5100929;27;65138;-79
2022/08/20 00:58:09;;;;;;;;;2.50;1.00;;;;;;;;5101137;27;61736;-79
2022/08/20 01:00:37;;;;;;;;;3.50;2.00;;;;;;;;5102258;27;61758;-79
2022/08/20 01:03:03;;;;;;;;;3.00;1.00;;;;;;;;5101266;27;62170;-80
2022/08/20 01:05:28;;;;;;;;;3.50;1.00;;;;;;;;5101407;27;64146;-80
2022/08/20 01:07:54;;;;;;;;;2.00;2.00;;;;;;;;5104802;27;61858;-80
2022/08/20 01:10:21;;;;;;;;;1.50;1.00;;;;;;;;5106189;27;61681;-79
2022/08/20 01:12:47;;;;;;;;;1.75;1.75;;;;;;;;5104805;27;61861;-80
2022/08/20 01:15:16;;;;;;;;;2.75;1.00;;;;;;;;5104766;27;62759;-80
2022/08/20 01:17:44;;;;;;;;;1.50;1.50;;;;;;;;5106101;27;61929;-80
2022/08/20 01:20:10;;;;;;;;;0.50;0.50;;;;;;;;5104038;27;61836;-80
2022/08/20 01:25:47;;;;;;;;;1.75;1.00;;;;;;;;5105239;27;61836;-79
2022/08/20 01:28:14;;;;;;;;;0.50;0.50;;;;;;;;5105541;27;61758;-79
2022/08/20 01:30:40;;;;;;;;;1.00;1.00;;;;;;;;5104149;27;61785;-80
2022/08/20 01:33:05;;;;;;;;;2.25;1.00;;;;;;;;5105892;27;61769;-80
2022/08/20 01:35:34;;;;;;;;;5.00;2.00;;;;;;;;5103050;27;64089;-81
2022/08/20 01:38:00;;;;;;;;;2.00;0.25;;;;;;;;5104265;27;61878;-78
2022/08/20 01:40:43;;;;;;;;;1.75;1.00;;;;;;;;5105429;27;62046;-78
2022/08/20 01:43:08;;;;;;;;;3.50;1.50;;;;;;;;5105467;27;62019;-78
2022/08/20 01:45:35;;;;;;;;;1.00;1.00;;;;;;;;5104174;27;61818;-78
2022/08/20 01:48:00;;;;;;;;;4.25;1.00;;;;;;;;5105536;27;62054;-78
2022/08/20 01:50:27;;;;;;;;;1.75;1.75;;;;;;;;5103560;27;61788;-78
2022/08/20 01:53:05;;;;;;;;;0.75;0.75;;;;;;;;5104059;27;61738;-78
2022/08/20 01:55:31;;;;;;;;;0.00;0.00;;;;;;;;5104350;27;61780;-78
2022/08/20 01:57:56;;;;;;;;;1.50;1.50;;;;;;;;5105307;27;61862;-78
2022/08/20 02:00:22;;;;;;;;;5.00;2.00;;;;;;;;5105080;27;61795;-78
2022/08/20 02:02:48;;;;;;;;;2.50;2.00;;;;;;;;5104855;27;61812;-77
2022/08/20 02:05:13;;;;;;;;;0.75;0.75;;;;;;;;5103376;27;63757;-78
2022/08/20 02:07:39;;;;;;;;;2.75;2.75;;;;;;;;5103455;27;61887;-78
2022/08/20 02:10:05;;;;;;;;;3.00;2.00;;;;;;;;5105481;27;61781;-78
2022/08/20 02:12:31;;;;;;;;;5.00;1.50;;;;;;;;5103612;27;61927;-78
2022/08/20 02:14:56;;;;;;;;;1.50;1.50;;;;;;;;5104160;27;61823;-79
2022/08/20 02:17:23;;;;;;;;;2.75;2.75;;;;;;;;5103766;27;61851;-78
2022/08/20 02:19:56;;;;;;;;;2.00;1.25;;;;;;;;5105097;27;61686;-78
2022/08/20 02:22:24;;;;;;;;;2.50;1.50;;;;;;;;5103682;27;61858;-78
2022/08/20 02:24:50;;;;;;;;;1.25;1.25;;;;;;;;5103963;27;61939;-78
2022/08/20 02:27:16;;;;;;;;;3.00;2.00;;;;;;;;5103332;27;61894;-78
2022/08/20 02:29:41;;;;;;;;;3.50;1.00;;;;;;;;5102813;27;61771;-78
2022/08/20 02:32:07;;;;;;;;;2.00;2.00;;;;;;;;5104619;27;61875;-78
2022/08/20 02:34:33;;;;;;;;;2.00;1.00;;;;;;;;5102526;27;65081;-78
2022/08/20 02:36:59;;;;;;;;;4.25;1.75;;;;;;;;5103399;27;61953;-78
2022/08/20 02:39:25;;;;;;;;;4.50;1.00;;;;;;;;5104300;27;61903;-78
2022/08/20 02:41:51;;;;;;;;;1.00;1.00;;;;;;;;5104609;27;61714;-78
2022/08/20 02:44:19;;;;;;;;;1.75;1.75;;;;;;;;5104026;27;62054;-78
2022/08/20 02:46:44;;;;;;;;;1.00;1.00;;;;;;;;5103720;27;61709;-78
2022/08/20 02:49:09;;;;;;;;;2.00;2.00;;;;;;;;5104614;27;61817;-78
2022/08/20 02:51:35;;;;;;;;;2.50;1.00;;;;;;;;5104407;27;61655;-78
2022/08/20 02:54:01;;;;;;;;;1.75;1.00;;;;;;;;5103354;27;62002;-78
2022/08/20 02:56:26;;;;;;;;;7.00;2.00;;;;;;;;5103038;27;62151;-78
2022/08/20 02:58:51;;;;;;;;;1.00;1.00;;;;;;;;5104499;27;62049;-78
2022/08/20 03:01:17;;;;;;;;;2.00;2.00;;;;;;;;5102295;27;61881;-78
2022/08/20 03:03:43;;;;;;;;;2.50;2.00;;;;;;;;5102075;27;63651;-78
2022/08/20 03:06:09;;;;;;;;;3.75;1.00;;;;;;;;5103037;27;61922;-78
2022/08/20 03:08:35;;;;;;;;;3.25;1.00;;;;;;;;5103957;27;61803;-79
2022/08/20 03:11:00;;;;;;;;;2.00;1.00;;;;;;;;5104508;27;61736;-78
2022/08/20 03:13:25;;;;;;;;;5.50;1.00;;;;;;;;5102036;27;65091;-78
2022/08/20 03:15:53;;;;;;;;;2.50;1.00;;;;;;;;5102890;27;61777;-78
2022/08/20 03:18:19;;;;;;;;;2.25;2.00;;;;;;;;5102737;27;61705;-78
2022/08/20 03:20:45;;;;;;;;;4.25;1.00;;;;;;;;5102611;27;61754;-78
2022/08/20 03:23:10;;;;;;;;;4.00;1.00;;;;;;;;5102977;27;61875;-78
2022/08/20 03:25:36;;;;;;;;;2.00;2.00;;;;;;;;5103971;27;61858;-78
2022/08/20 03:28:01;;;;;;;;;1.75;1.75;;;;;;;;5103989;27;61905;-78
2022/08/20 03:30:27;;;;;;;;;1.75;1.75;;;;;;;;5101674;27;61884;-78
2022/08/20 03:32:53;;;;;;;;;1.50;1.50;;;;;;;;5103036;27;63256;-78
2022/08/20 03:35:19;;;;;;;;;1.00;1.00;;;;;;;;5103672;27;61965;-78
2022/08/20 03:37:45;;;;;;;;;2.50;2.00;;;;;;;;5103879;27;61804;-78
2022/08/20 03:40:13;;;;;;;;;2.50;1.00;;;;;;;;5097722;27;61936;-78
2022/08/20 03:42:39;;;;;;;;;1.00;1.00;;;;;;;;5102376;27;62435;-79
2022/08/20 03:45:05;;;;;;;;;1.50;1.50;;;;;;;;5102987;27;61781;-78
2022/08/20 03:47:30;;;;;;;;;2.50;1.25;;;;;;;;5103786;27;61674;-79
2022/08/20 03:49:59;;;;;;;;;1.00;1.00;;;;;;;;5103682;27;61688;-80
2022/08/20 03:52:27;;;;;;;;;1.25;1.00;;;;;;;;5102864;27;61872;-79
2022/08/20 03:54:52;;;;;;;;;2.25;0.00;;;;;;;;5102661;27;61837;-79
2022/08/20 03:57:17;;;;;;;;;4.25;1.50;;;;;;;;5102121;27;61915;-79
2022/08/20 03:59:43;;;;;;;;;2.25;1.50;;;;;;;;5101411;27;62015;-79
2022/08/20 04:02:10;;;;;;;;;4.50;1.00;;;;;;;;5101518;27;63812;-79
2022/08/20 04:04:35;;;;;;;;;2.25;1.00;;;;;;;;5103534;27;61778;-79
2022/08/20 04:07:07;;;;;;;;;2.75;1.00;;;;;;;;5101812;27;61734;-79
2022/08/20 04:09:33;;;;;;;;;1.00;1.00;;;;;;;;5102431;27;61718;-79
2022/08/20 04:11:59;;;;;;;;;1.00;1.00;;;;;;;;5102548;27;62183;-79
2022/08/20 04:14:24;;;;;;;;;3.00;0.50;;;;;;;;5102851;27;62019;-79
2022/08/20 04:16:49;;;;;;;;;1.50;1.00;;;;;;;;5103007;27;62067;-79
2022/08/20 04:19:15;;;;;;;;;2.25;2.25;;;;;;;;5103352;27;62003;-79
2022/08/20 04:21:40;;;;;;;;;1.00;1.00;;;;;;;;5101279;27;63690;-79
2022/08/20 04:24:05;;;;;;;;;1.25;1.00;;;;;;;;5102670;27;61768;-79
2022/08/20 04:26:31;;;;;;;;;2.00;1.00;;;;;;;;5103401;27;61808;-79
2022/08/20 04:28:56;;;;;;;;;2.00;1.25;;;;;;;;5102858;27;61783;-79
2022/08/20 04:31:31;;;;;;;;;2.25;0.75;;;;;;;;5102239;27;62970;-80
2022/08/20 04:33:57;;;;;;;;;1.00;1.00;;;;;;;;5102468;27;61812;-80
2022/08/20 04:36:22;;;;;;;;;2.00;1.00;;;;;;;;5101688;27;61764;-80
2022/08/20 04:38:47;;;;;;;;;2.00;2.00;;;;;;;;5101761;27;61911;-80
2022/08/20 04:41:12;;;;;;;;;3.25;1.50;;;;;;;;5102755;27;64594;-79
2022/08/20 04:43:38;;;;;;;;;1.00;1.00;;;;;;;;5105817;27;61925;-79
2022/08/20 04:46:08;;;;;;;;;1.00;1.00;;;;;;;;5106295;27;62097;-80
2022/08/20 04:48:36;;;;;;;;;0.50;0.50;;;;;;;;5106749;27;61919;-79
2022/08/20 04:51:01;;;;;;;;;4.00;1.00;;;;;;;;5104334;27;64840;-79
2022/08/20 04:53:27;;;;;;;;;1.00;1.00;;;;;;;;5104278;27;61779;-79
2022/08/20 04:55:58;;;;;;;;;2.00;1.00;;;;;;;;5104779;27;61915;-80
2022/08/20 04:58:30;;;;;;;;;8.00;2.00;;;;;;;;5106315;27;61709;-79
2022/08/20 05:01:02;;;;;;;;;2.75;0.75;;;;;;;;5105520;27;62179;-79
2022/08/20 05:03:28;;;;;;;;;2.50;1.00;;;;;;;;5106136;27;61816;-80
2022/08/20 05:05:55;;;;;;;;;1.75;1.75;;;;;;;;5104534;27;61994;-79
2022/08/20 05:08:21;;;;;;;;;4.00;1.00;;;;;;;;5106435;27;61819;-79
2022/08/20 05:10:47;;;;;;;;;4.00;3.00;;;;;;;;5104332;27;63901;-80
2022/08/20 05:13:12;;;;;;;;;2.00;1.00;;;;;;;;5105323;27;61743;-79
2022/08/20 05:15:38;;;;;;;;;3.00;2.00;;;;;;;;5104261;27;61783;-79
2022/08/20 05:18:06;;;;;;;;;1.75;1.75;;;;;;;;5105867;27;62142;-79
2022/08/20 05:20:33;;;;;;;;;1.50;1.50;;;;;;;;5104065;27;64857;-79
2022/08/20 05:22:59;;;;;;;;;2.00;2.00;;;;;;;;5105608;27;61848;-79
2022/08/20 05:25:28;;;;;;;;;0.50;0.50;;;;;;;;5104136;27;61846;-79
2022/08/20 05:28:01;;;;;;;;;1.50;1.50;;;;;;;;5105675;27;62318;-80
2022/08/20 05:30:32;;;;;;;;;6.00;2.00;;;;;;;;5103455;27;64664;-79
2022/08/20 05:32:58;;;;;;;;;2.00;1.50;;;;;;;;5104676;27;62094;-79
2022/08/20 05:35:23;;;;;;;;;2.25;1.00;;;;;;;;5105104;27;61978;-80
2022/08/20 05:37:49;;;;;;;;;2.75;2.00;;;;;;;;5103854;27;61908;-80
2022/08/20 05:40:15;;;;;;;;;2.00;2.00;;;;;;;;5103485;27;62029;-80
2022/08/20 05:42:40;;;;;;;;;8.00;4.00;;;;;;;;5104552;27;61760;-80
2022/08/20 05:45:05;;;;;;;;;1.00;1.00;;;;;;;;5104272;27;61972;-80
2022/08/20 05:47:31;;;;;;;;;1.75;1.75;;;;;;;;5103810;27;62175;-80
2022/08/20 05:49:56;;;;;;;;;4.00;1.25;;;;;;;;5104409;27;62938;-80
2022/08/20 05:52:22;;;;;;;;;2.25;1.00;;;;;;;;5104164;27;61829;-80
2022/08/20 05:54:47;;;;;;;;;2.25;1.00;;;;;;;;5102940;27;61800;-82
2022/08/20 05:57:15;;;;;;;;;2.00;2.00;;;;;;;;5103693;27;61834;-78
2022/08/20 05:59:40;;;;;;;;;1.00;1.00;;;;;;;;5104509;27;62091;-84
2022/08/20 06:04:23;;;;;;;;;1.25;1.25;;;;;;;;5103369;27;61626;-81
2022/08/20 06:04:51;;;;;;;;;3.50;2.00;;;;;;;;5105258;27;61641;-81
2022/08/20 06:07:16;;;;;;;;;3.75;1.25;;;;;;;;5103851;27;61970;-82
2022/08/20 06:09:41;;;;;;;;;3.75;1.25;;;;;;;;5104307;27;61892;-80
2022/08/20 06:12:08;;;;;;;;;2.25;1.25;;;;;;;;5102370;27;61874;-81
2022/08/20 06:14:34;;;;;;;;;1.00;1.00;;;;;;;;5103239;27;61845;-80
2022/08/20 06:17:06;;;;;;;;;1.50;1.25;;;;;;;;5103037;27;62039;-81
2022/08/20 06:19:32;;;;;;;;;3.00;1.00;;;;;;;;5100416;27;63614;-81
2022/08/20 06:21:58;;;;;;;;;1.00;1.00;;;;;;;;5102811;27;61886;-81
2022/08/20 06:24:23;;;;;;;;;1.00;1.00;;;;;;;;5103324;27;61933;-81
2022/08/20 06:26:53;;;;;;;;;3.50;2.00;;;;;;;;5104683;27;61824;-81
2022/08/20 06:29:19;;;;;;;;;2.75;1.25;;;;;;;;5102353;27;63693;-81
2022/08/20 06:31:45;;;;;;;;;3.25;1.00;;;;;;;;5100051;27;62372;-81
2022/08/20 06:34:10;;;;;;;;;6.50;2.00;;;;;;;;5102721;27;61965;-81
2022/08/20 06:36:35;;;;;;;;;2.25;2.00;;;;;;;;5104607;27;61774;-81
2022/08/20 06:39:00;;;;;;;;;2.00;1.50;;;;;;;;5097391;27;63911;-80
2022/08/20 06:41:26;;;;;;;;;2.25;2.00;;;;;;;;5104510;27;62039;-81
2022/08/20 06:43:52;;;;;;;;;1.00;1.00;;;;;;;;5093547;27;62048;-81
2022/08/20 06:46:18;;;;;;;;;3.50;2.25;;;;;;;;5100981;27;62139;-81
2022/08/20 06:48:43;;;;;;;;;1.00;1.00;;;;;;;;5102850;27;61744;-81
2022/08/20 06:51:09;;;;;;;;;1.00;1.00;;;;;;;;5093215;27;62001;-80
2022/08/20 06:53:34;;;;;;;;;1.00;1.00;;;;;;;;5083055;27;62125;-81
2022/08/20 06:56:00;;;;;;;;;2.75;1.50;;;;;;;;5097933;27;61896;-81
2022/08/20 06:58:25;;;;;;;;;3.00;1.00;;;;;;;;5103611;27;63144;-81
2022/08/20 07:00:50;;;;;;;;;3.00;1.00;;;;;;;;5103478;27;61838;-81
2022/08/20 07:03:15;;;;;;;;;5.00;0.50;;;;;;;;5100806;27;61786;-81
2022/08/20 07:05:42;;;;;;;;;3.00;1.00;;;;;;;;5102777;27;61786;-82
2022/08/20 07:08:17;;;;;;;;;2.00;1.25;;;;;;;;5101619;27;63746;-81
2022/08/20 07:10:43;;;;;;;;;0.50;0.50;;;;;;;;5097351;27;61814;-81
2022/08/20 07:13:09;;;;;;;;;2.00;2.00;;;;;;;;5102969;27;61709;-82
2022/08/20 07:15:35;;;;;;;;;2.75;1.50;;;;;;;;5101729;27;61922;-81
2022/08/20 07:18:03;;;;;;;;;2.67;1.33;;;;;;;;5101366;27;63956;-82
2022/08/20 07:20:30;;;;;;;;;2.00;2.00;;;;;;;;5100142;27;62109;-81
2022/08/20 07:22:55;;;;;;;;;3.00;2.00;;;;;;;;5102601;27;61872;-81
2022/08/20 07:25:21;;;;;;;;;1.00;0.00;;;;;;;;5102758;27;61842;-81
2022/08/20 07:27:47;;;;;;;;;6.75;2.00;;;;;;;;5101092;27;63193;-82
2022/08/20 07:33:03;;;;;;;;;0.00;0.00;;;;;;;;5103376;27;61821;-80
2022/08/20 07:35:29;;;;;;;;;1.00;1.00;;;;;;;;5102463;27;61948;-82
2022/08/20 07:37:55;;;;;;;;;3.00;1.00;;;;;;;;5102235;27;62034;-81
2022/08/20 07:40:26;;;;;;;;;2.25;1.50;;;;;;;;5097749;27;62127;-80
2022/08/20 07:42:52;;;;;;;;;1.00;1.00;;;;;;;;5087295;27;61807;-81
2022/08/20 07:45:17;;;;;;;;;4.50;0.75;;;;;;;;5103092;27;61958;-79
2022/08/20 07:47:43;;;;;;;;;2.50;1.50;;;;;;;;5102502;27;61792;-81
2022/08/20 07:50:10;;;;;;;;;2.75;1.00;;;;;;;;5103052;27;61963;-81
2022/08/20 07:52:35;;;;;;;;;2.75;1.00;;;;;;;;5100173;27;62019;-77
2022/08/20 07:55:02;;;;;;;;;4.25;1.25;;;;;;;;5099231;27;62033;-77
2022/08/20 07:57:27;;;;;;;;;1.50;1.50;;;;;;;;5100172;27;65172;-77
2022/08/20 07:59:52;;;;;;;;;4.25;1.50;;;;;;;;5100220;27;62187;-77
2022/08/20 08:02:17;;;;;;;;;4.00;2.00;;;;;;;;5102688;27;61848;-77
2022/08/20 08:04:43;;;;;;;;;5.33;1.33;;;;;;;;5102646;27;61826;-77
2022/08/20 08:07:09;;;;;;;;;4.25;1.75;;;;;;;;5100203;27;64605;-77
2022/08/20 08:09:34;;;;;;;;;1.75;0.50;;;;;;;;5101381;27;61870;-77
2022/08/20 08:12:01;;;;;;;;;3.75;1.50;;;;;;;;5102560;27;61821;-77
2022/08/20 08:14:28;;;;;;;;;1.75;1.50;;;;;;;;5097610;27;61978;-77
2022/08/20 08:16:58;;;;;;;;;0.50;0.50;;;;;;;;5100312;27;61952;-77
2022/08/20 08:19:26;;;;;;;;;7.00;2.75;;;;;;;;5101318;27;61978;-77
2022/08/20 08:21:51;;;;;;;;;0.75;0.75;;;;;;;;5101765;27;61935;-77
2022/08/20 08:24:16;;;;;;;;;3.00;1.75;;;;;;;;5101934;27;62170;-77
2022/08/20 08:26:42;;;;;;;;;1.50;1.50;;;;;;;;5101462;27;62075;-77
2022/08/20 08:29:08;;;;;;;;;2.00;1.00;;;;;;;;5103210;27;62131;-78
2022/08/20 08:31:33;;;;;;;;;3.25;1.50;;;;;;;;5102470;27;61759;-77
2022/08/20 08:33:59;;;;;;;;;1.00;1.00;;;;;;;;5101686;27;62143;-78
2022/08/20 08:36:25;;;;;;;;;3.00;1.33;;;;;;;;5101906;27;61837;-78
2022/08/20 08:38:51;;;;;;;;;1.25;1.25;;;;;;;;5101984;27;61734;-78
2022/08/20 08:41:23;;;;;;;;;1.25;1.25;;;;;;;;5102057;27;62232;-78
2022/08/20 08:43:52;;;;;;;;;0.75;0.75;;;;;;;;5101536;27;61789;-78
2022/08/20 08:46:21;;;;;;;;;0.50;0.50;;;;;;;;5101550;27;61869;-78
2022/08/20 08:48:47;;;;;;;;;3.50;1.25;;;;;;;;5101522;27;61685;-78
2022/08/20 08:51:15;;;;;;;;;2.00;2.00;;;;;;;;5101381;27;61950;-77
2022/08/20 08:53:52;;;;;;;;;4.25;1.50;;;;;;;;5101683;27;62153;-80
2022/08/20 08:56:18;;;;;;;;;1.00;1.00;;;;;;;;5101649;27;62784;-81
2022/08/20 08:58:43;;;;;;;;;0.75;0.75;;;;;;;;5101480;27;61767;-81
2022/08/20 09:01:13;;;;;;;;;4.25;1.75;;;;;;;;5101772;27;62428;-81
2022/08/20 09:03:42;;;;;;;;;2.00;1.00;;;;;;;;5101580;27;61852;-81
2022/08/20 09:06:11;;;;;;;;;4.75;0.75;;;;;;;;5101559;27;62115;-83
2022/08/20 09:08:42;;;;;;;;;3.00;1.33;;;;;;;;5101768;27;61867;-84
2022/08/20 09:11:07;;;;;;;;;2.00;2.00;;;;;;;;5098591;27;61878;-84
2022/08/20 09:13:33;;;;;;;;;6.00;1.00;;;;;;;;5101179;27;61955;-85
2022/08/20 09:15:58;;;;;;;;;1.33;0.33;;;;;;;;5098706;27;63435;-84
2022/08/20 09:18:24;;;;;;;;;5.50;2.75;;;;;;;;5101171;27;61808;-85
2022/08/20 09:20:49;;;;;;;;;2.00;1.67;;;;;;;;5100952;27;61776;-81
2022/08/20 09:23:14;;;;;;;;;2.00;1.00;;;;;;;;5101140;27;61836;-84
2022/08/20 09:25:39;;;;;;;;;2.00;1.00;;;;;;;;5099247;27;65066;-84
2022/08/20 09:28:05;;;;;;;;;0.00;0.00;;;;;;;;5103439;27;62385;-84
2022/08/20 09:30:30;;;;;;;;;0.33;0.33;;;;;;;;5104478;27;61887;-84
2022/08/20 09:32:57;;;;;;;;;3.67;1.00;;;;;;;;5104228;27;61828;-84
2022/08/20 09:35:23;;;;;;;;;1.00;0.00;;;;;;;;5104086;27;62240;-84
2022/08/20 09:37:48;;;;;;;;;4.00;1.00;;;;;;;;5105295;27;62032;-84
2022/08/20 09:40:13;;;;;;;;;1.00;1.00;;;;;;;;5099260;27;62278;-84
2022/08/20 09:42:38;;;;;;;;;1.00;1.00;;;;;;;;5104224;27;62116;-84
2022/08/20 09:45:04;;;;;;;;;3.00;1.00;;;;;;;;5090826;27;64329;-84
2022/08/20 09:47:30;;;;;;;;;0.67;0.67;;;;;;;;5083459;28;61763;-84
2022/08/20 09:49:55;;;;;;;;;2.50;1.00;;;;;;;;5085264;28;61919;-84
2022/08/20 09:52:23;;;;;;;;;1.67;0.67;;;;;;;;5096303;27;61945;-84
2022/08/20 09:54:49;;;;;;;;;1.00;1.00;;;;;;;;5104392;27;63207;-84
2022/08/20 09:57:15;;;;;;;;;0.67;0.00;;;;;;;;5105406;27;61924;-84
2022/08/20 09:59:41;;;;;;;;;2.33;1.00;;;;;;;;5104157;27;61843;-84
2022/08/20 10:02:06;;;;;;;;;1.67;0.00;;;;;;;;5104814;27;62140;-84
2022/08/20 10:04:31;;;;;;;;;0.33;0.00;;;;;;;;5103046;27;63977;-84
2022/08/20 10:06:56;;;;;;;;;1.00;1.00;;;;;;;;5105160;27;61725;-84
2022/08/20 10:09:22;;;;;;;;;1.67;1.67;;;;;;;;5104069;27;62074;-84
2022/08/20 10:11:47;;;;;;;;;3.00;2.00;;;;;;;;5104201;27;61934;-84
2022/08/20 10:14:13;;;;;;;;;2.00;1.00;;;;;;;;5104245;27;62033;-84
2022/08/20 10:16:38;;;;;;;;;3.00;1.67;;;;;;;;5104197;27;62031;-84
2022/08/20 10:19:04;;;;;;;;;2.00;2.00;;;;;;;;5103843;27;61977;-84
2022/08/20 10:21:30;;;;;;;;;0.33;0.33;;;;;;;;5104113;27;61962;-84
2022/08/20 10:23:55;;;;;;;;;1.33;1.33;;;;;;;;5102426;27;64065;-84
2022/08/20 10:26:21;;;;;;;;;3.00;0.00;;;;;;;;5103561;27;62033;-84
2022/08/20 10:28:46;;;;;;;;;2.00;2.00;;;;;;;;5103472;27;61822;-84
2022/08/20 10:31:12;;;;;;;;;3.00;2.00;;;;;;;;5102925;27;62135;-84
2022/08/20 10:33:37;;;;;;;;;2.67;1.33;;;;;;;;5103248;27;63344;-84
2022/08/20 10:36:10;;;;;;;;;2.00;1.67;;;;;;;;5103336;27;62033;-83
2022/08/20 10:38:35;;;;;;;;;3.00;1.33;;;;;;;;5103142;27;61746;-84
2022/08/20 10:41:00;;;;;;;;;2.00;2.00;;;;;;;;5133869;27;62331;-84
2022/08/20 10:43:26;;;;;;;;;0.67;0.67;;;;;;;;5102292;27;63843;-85
2022/08/20 10:45:52;;;;;;;;;1.67;0.67;;;;;;;;5104131;27;61741;-84
2022/08/20 10:48:17;;;;;;;;;1.67;0.67;;;;;;;;5103100;27;61740;-84
2022/08/20 10:50:43;;;;;;;;;1.00;1.00;;;;;;;;5103539;27;61739;-84
2022/08/20 10:53:08;;;;;;;;;1.33;1.33;;;;;;;;5103430;27;62523;-84
2022/08/20 10:55:35;;;;;;;;;1.00;1.00;;;;;;;;5103253;27;61743;-84
2022/08/20 10:58:03;;;;;;;;;2.00;0.00;;;;;;;;5103061;27;61760;-84
2022/08/20 11:00:29;;;;;;;;;1.00;0.00;;;;;;;;5103642;27;61955;-84
2022/08/20 11:02:54;;;;;;;;;2.67;0.00;;;;;;;;5102281;27;63486;-84
2022/08/20 11:05:19;;;;;;;;;5.00;1.67;;;;;;;;5102927;27;62074;-84
2022/08/20 11:07:45;;;;;;;;;1.00;1.00;;;;;;;;5104550;27;61786;-84
2022/08/20 11:10:10;;;;;;;;;4.00;1.33;;;;;;;;5104093;27;61832;-84
2022/08/20 11:12:36;;;;;;;;;1.33;1.00;;;;;;;;5102359;27;63905;-84
2022/08/20 11:15:01;;;;;;;;;0.67;0.67;;;;;;;;5103637;27;61844;-83
2022/08/20 11:17:28;;;;;;;;;1.33;0.67;;;;;;;;5104298;27;61794;-84
2022/08/20 11:19:53;;;;;;;;;0.00;0.00;;;;;;;;5104192;27;61715;-84
2022/08/20 11:22:19;;;;;;;;;1.00;1.00;;;;;;;;5102104;27;64498;-84
2022/08/20 11:24:44;;;;;;;;;1.00;1.00;;;;;;;;5102275;27;61942;-84
2022/08/20 11:27:14;;;;;;;;;2.67;1.00;;;;;;;;5104030;27;61897;-83
2022/08/20 11:29:39;;;;;;;;;5.33;1.00;;;;;;;;5104003;27;61743;-84
2022/08/20 11:32:05;;;;;;;;;0.67;0.67;;;;;;;;5101351;27;63427;-84
2022/08/20 11:34:30;;;;;;;;;4.33;1.33;;;;;;;;5102453;27;61810;-85
2022/08/20 11:36:57;;;;;;;;;3.67;2.33;;;;;;;;5102493;27;61851;-84
2022/08/20 11:39:23;;;;;;;;;0.67;0.67;;;;;;;;5103917;27;62014;-85
2022/08/20 11:41:48;;;;;;;;;4.00;0.00;;;;;;;;5101751;27;65077;-84
2022/08/20 11:44:13;;;;;;;;;0.00;0.00;;;;;;;;5101778;27;61951;-85
2022/08/20 11:46:38;;;;;;;;;1.67;1.33;;;;;;;;5103670;27;61722;-84
2022/08/20 11:49:04;;;;;;;;;1.67;0.67;;;;;;;;5103818;27;61704;-84
2022/08/20 11:51:29;;;;;;;;;1.33;1.33;;;;;;;;5100806;27;63989;-84
2022/08/20 11:53:54;;;;;;;;;2.00;0.67;;;;;;;;5103006;27;61869;-84
2022/08/20 11:56:20;;;;;;;;;1.67;0.33;;;;;;;;5102191;27;61842;-85
2022/08/20 11:58:46;;;;;;;;;4.00;1.00;;;;;;;;5102217;27;62063;-84
2022/08/20 12:01:11;;;;;;;;;2.00;1.00;;;;;;;;5102780;27;63031;-85
2022/08/20 12:03:37;;;;;;;;;2.67;1.33;;;;;;;;5103234;27;61851;-84
2022/08/20 12:06:02;;;;;;;;;2.00;2.00;;;;;;;;5103785;27;61936;-84
2022/08/20 12:08:28;;;;;;;;;1.00;1.00;;;;;;;;5102089;27;62194;-84
2022/08/20 12:10:57;;;;;;;;;1.00;1.00;;;;;;;;5103163;27;62078;-84
2022/08/20 12:13:22;;;;;;;;;1.33;1.33;;;;;;;;5101008;27;61908;-83
2022/08/20 12:15:49;;;;;;;;;2.00;1.00;;;;;;;;5103066;27;61904;-84
2022/08/20 12:18:15;;;;;;;;;10.00;7.67;;;;;;;;5102255;27;62085;-84
2022/08/20 12:20:40;;;;;;;;;1.00;1.00;;;;;;;;5101186;27;63466;-85
2022/08/20 12:23:05;;;;;;;;;1.00;1.00;;;;;;;;5102444;27;61964;-84
2022/08/20 12:25:31;;;;;;;;;1.00;1.00;;;;;;;;5101810;27;62057;-84
2022/08/20 12:27:58;;;;;;;;;1.33;1.00;;;;;;;;5101681;27;61744;-85
2022/08/20 12:30:23;;;;;;;;;2.00;2.00;;;;;;;;5100768;27;64108;-84
2022/08/20 12:32:49;;;;;;;;;1.33;1.33;;;;;;;;5101493;27;61939;-84
2022/08/20 12:35:15;;;;;;;;;1.00;1.00;;;;;;;;5101873;27;61904;-85
2022/08/20 12:37:41;;;;;;;;;2.33;1.00;;;;;;;;5101914;27;62193;-84
2022/08/20 12:40:08;;;;;;;;;1.67;1.00;;;;;;;;5095386;27;63913;-84
2022/08/20 12:42:33;;;;;;;;;3.00;1.67;;;;;;;;5102187;27;62030;-85
2022/08/20 12:44:59;;;;;;;;;2.67;1.00;;;;;;;;5101219;27;61751;-84
2022/08/20 12:47:35;;;;;;;;;1.00;1.00;;;;;;;;5102851;27;61768;-84
2022/08/20 12:50:06;;;;;;;;;2.00;2.00;;;;;;;;5102250;27;63087;-85
2022/08/20 12:52:32;;;;;;;;;3.33;1.67;;;;;;;;5101230;27;61805;-85
2022/08/20 12:54:58;;;;;;;;;2.67;2.00;;;;;;;;5102515;27;61826;-85
2022/08/20 12:57:32;;;;;;;;;3.00;1.00;;;;;;;;5101129;27;61814;-85
2022/08/20 12:59:58;;;;;;;;;2.33;2.00;;;;;;;;5100917;27;64915;-84
2022/08/20 13:02:24;;;;;;;;;3.33;2.00;;;;;;;;5104725;27;61873;-85
2022/08/20 13:04:49;;;;;;;;;2.00;2.00;;;;;;;;5106308;27;61910;-85
2022/08/20 13:07:14;;;;;;;;;4.67;3.00;;;;;;;;5106535;27;62087;-84
2022/08/20 13:09:40;;;;;;;;;2.00;2.00;;;;;;;;5104079;27;63374;-85
2022/08/20 13:12:05;;;;;;;;;1.67;1.67;;;;;;;;5106128;27;61759;-85
2022/08/20 13:14:31;;;;;;;;;2.00;2.00;;;;;;;;5106127;27;61765;-85
2022/08/20 13:17:00;;;;;;;;;2.00;2.00;;;;;;;;5106103;27;61812;-85
2022/08/20 13:19:26;;;;;;;;;1.67;1.67;;;;;;;;5105338;27;63162;-85
2022/08/20 13:21:52;;;;;;;;;1.00;1.00;;;;;;;;5106015;27;61824;-85
2022/08/20 13:24:17;;;;;;;;;4.00;2.67;;;;;;;;5103644;27;62039;-85
2022/08/20 13:26:43;;;;;;;;;4.67;2.00;;;;;;;;5104858;27;62243;-85
2022/08/20 13:29:09;;;;;;;;;1.00;1.00;;;;;;;;5104144;27;65133;-85
2022/08/20 13:31:34;;;;;;;;;3.00;1.33;;;;;;;;5105514;27;61876;-85
2022/08/20 13:33:59;;;;;;;;;1.00;0.67;;;;;;;;5105542;27;61932;-85
2022/08/20 13:36:25;;;;;;;;;1.67;1.67;;;;;;;;5104866;27;62224;-85
2022/08/20 13:38:50;;;;;;;;;1.33;1.33;;;;;;;;5104804;27;62728;-85
2022/08/20 13:41:15;;;;;;;;;1.33;0.00;;;;;;;;5104066;27;62037;-85
2022/08/20 13:43:41;;;;;;;;;1.33;1.33;;;;;;;;5103948;27;61712;-85
2022/08/20 13:46:06;;;;;;;;;1.00;1.00;;;;;;;;5104274;27;62007;-86
2022/08/20 13:48:32;;;;;;;;;3.33;0.67;;;;;;;;5105118;27;62694;-85
2022/08/20 13:50:57;;;;;;;;;3.67;0.67;;;;;;;;5103984;27;61772;-86
2022/08/20 13:53:23;;;;;;;;;2.67;1.67;;;;;;;;5104819;27;62381;-85
2022/08/20 13:55:48;;;;;;;;;1.00;1.00;;;;;;;;5105710;27;62260;-85
2022/08/20 13:58:13;;;;;;;;;1.67;0.33;;;;;;;;5105161;27;62810;-85
2022/08/20 14:00:38;;;;;;;;;2.67;2.00;;;;;;;;5105131;27;61849;-83
2022/08/20 14:03:04;;;;;;;;;1.00;0.67;;;;;;;;5103759;27;61880;-82
2022/08/20 14:05:30;;;;;;;;;0.67;0.67;;;;;;;;5105732;27;62177;-83
2022/08/20 14:08:02;;;;;;;;;1.00;1.00;;;;;;;;5102766;27;64102;-83
2022/08/20 14:10:31;;;;;;;;;2.00;2.00;;;;;;;;5105318;27;61773;-83
2022/08/20 14:12:56;;;;;;;;;0.00;0.00;;;;;;;;5104271;27;61769;-84
2022/08/20 14:15:21;;;;;;;;;2.00;2.00;;;;;;;;5103152;27;61785;-83
2022/08/20 14:17:52;;;;;;;;;0.33;0.00;;;;;;;;5104317;27;62034;-83
2022/08/20 14:20:19;;;;;;;;;1.00;1.00;;;;;;;;5105291;27;61905;-83
2022/08/20 14:22:45;;;;;;;;;1.00;0.67;;;;;;;;5104703;27;61774;-83
2022/08/20 14:25:11;;;;;;;;;3.67;0.67;;;;;;;;5104823;27;61839;-84
2022/08/20 14:27:36;;;;;;;;;0.33;0.33;;;;;;;;5104306;27;63257;-83
2022/08/20 14:30:04;;;;;;;;;0.67;0.67;;;;;;;;5105023;27;61852;-83
2022/08/20 14:32:29;;;;;;;;;1.00;1.00;;;;;;;;5104765;27;61899;-83
2022/08/20 14:34:57;;;;;;;;;0.67;0.67;;;;;;;;5103554;27;61813;-83
2022/08/20 14:37:24;;;;;;;;;0.67;0.33;;;;;;;;5103992;27;61944;-83
2022/08/20 14:39:51;;;;;;;;;1.67;1.33;;;;;;;;5099221;27;61937;-83
2022/08/20 14:42:17;;;;;;;;;1.33;0.67;;;;;;;;5103290;27;61956;-83
2022/08/20 14:44:42;;;;;;;;;2.67;0.67;;;;;;;;5104795;27;62022;-83